createdAt,value
2023-01-31T00:03:30.045Z,6.50
2023-01-31T00:08:28.937Z,6.50
2023-01-31T00:13:28.069Z,6.50
2023-01-31T00:18:26.860Z,6.50
2023-01-31T00:23:26.163Z,6.50
2023-01-31T00:28:24.974Z,6.60
2023-01-31T00:33:24.401Z,6.60
2023-01-31T00:38:22.957Z,6.60
2023-01-31T00:43:22.103Z,6.60
2023-01-31T00:48:20.877Z,6.60
2023-01-31T00:53:22.181Z,6.50
2023-01-31T00:58:21.074Z,6.50
2023-01-31T01:03:20.029Z,6.50
2023-01-31T01:08:19.017Z,6.50
2023-01-31T01:13:18.026Z,6.50
2023-01-31T01:18:17.070Z,6.60
2023-01-31T01:23:16.038Z,6.60
2023-01-31T01:28:14.987Z,6.60
2023-01-31T01:33:14.090Z,6.60
2023-01-31T01:38:13.188Z,6.60
2023-01-31T01:43:12.303Z,6.50
2023-01-31T01:48:11.107Z,6.50
2023-01-31T01:53:11.115Z,6.50
2023-01-31T01:58:10.177Z,6.50
2023-01-31T02:03:09.100Z,6.50
2023-01-31T02:08:09.694Z,6.40
2023-01-31T02:13:09.035Z,6.40
2023-01-31T02:18:08.351Z,6.30
2023-01-31T02:23:07.063Z,6.30
2023-01-31T02:28:06.461Z,6.20
2023-01-31T02:33:05.830Z,6.30
2023-01-31T02:38:05.234Z,6.30
2023-01-31T02:43:05.722Z,6.30
2023-01-31T02:48:07.590Z,6.30
2023-01-31T02:53:07.063Z,6.30
2023-01-31T02:58:06.115Z,6.40
2023-01-31T03:03:05.187Z,6.40
2023-01-31T03:08:04.979Z,6.40
2023-01-31T03:13:05.929Z,6.40
2023-01-31T03:18:05.036Z,6.50
2023-01-31T03:23:04.202Z,6.50
2023-01-31T03:28:04.630Z,6.40
2023-01-31T03:33:04.776Z,6.40
2023-01-31T03:38:04.110Z,6.40
2023-01-31T03:43:03.539Z,6.30
2023-01-31T03:48:03.655Z,6.40
2023-01-31T03:53:03.491Z,6.20
2023-01-31T03:58:02.226Z,6.20
2023-01-31T04:03:01.301Z,6.00
2023-01-31T04:08:01.830Z,5.90
2023-01-31T04:13:01.724Z,5.80
2023-01-31T04:18:01.068Z,5.60
2023-01-31T04:23:00.171Z,5.60
2023-01-31T04:27:59.056Z,5.50
2023-01-31T04:32:58.138Z,5.40
2023-01-31T04:37:57.049Z,5.30
2023-01-31T04:42:56.181Z,5.30
2023-01-31T04:47:55.174Z,5.30
2023-01-31T04:52:54.202Z,5.30
2023-01-31T04:57:53.291Z,5.40
2023-01-31T05:02:52.575Z,5.40
2023-01-31T05:07:52.346Z,5.40
2023-01-31T05:12:51.155Z,5.40
2023-01-31T05:17:50.074Z,5.40
2023-01-31T05:22:49.276Z,5.50
2023-01-31T05:27:48.287Z,5.50
2023-01-31T05:32:49.180Z,5.60
2023-01-31T05:37:48.158Z,5.70
2023-01-31T05:42:47.175Z,5.70
2023-01-31T05:47:46.182Z,5.80
2023-01-31T05:52:45.195Z,5.80
2023-01-31T05:57:44.202Z,5.80
2023-01-31T06:02:43.216Z,5.90
2023-01-31T06:07:42.230Z,5.90
2023-01-31T06:12:41.126Z,5.90
2023-01-31T06:17:40.244Z,5.90
2023-01-31T06:22:39.361Z,5.90
2023-01-31T06:27:38.140Z,5.90
2023-01-31T06:32:37.277Z,5.90
2023-01-31T06:37:36.282Z,5.90
2023-01-31T06:42:35.094Z,5.90
2023-01-31T06:47:34.292Z,5.90
2023-01-31T06:52:33.691Z,5.90
2023-01-31T06:57:33.236Z,5.90
2023-01-31T07:02:32.572Z,5.90
2023-01-31T07:07:31.292Z,5.90
2023-01-31T07:12:30.298Z,5.90
2023-01-31T07:17:29.110Z,6.00
2023-01-31T07:22:28.111Z,6.00
2023-01-31T07:27:27.215Z,6.00
2023-01-31T07:32:27.123Z,6.10
2023-01-31T07:37:26.118Z,6.10
2023-01-31T07:42:25.312Z,6.20
2023-01-31T07:47:24.070Z,6.20
2023-01-31T07:52:23.284Z,6.40
2023-01-31T07:57:22.301Z,6.50
2023-01-31T08:02:39.568Z,6.70
2023-01-31T08:07:38.121Z,6.70
2023-01-31T08:12:37.370Z,6.70
2023-01-31T08:17:36.176Z,6.80
2023-01-31T08:22:35.201Z,6.80
2023-01-31T08:27:34.092Z,6.80
2023-01-31T08:32:36.263Z,6.80
2023-01-31T08:37:35.188Z,7.00
2023-01-31T08:42:34.214Z,7.10
2023-01-31T08:47:33.180Z,7.10
2023-01-31T08:52:34.396Z,7.10
2023-01-31T08:57:33.604Z,7.10
2023-01-31T09:02:32.475Z,7.20
2023-01-31T09:07:31.301Z,7.30
2023-01-31T09:12:30.257Z,7.30
2023-01-31T09:17:29.840Z,7.30
2023-01-31T09:22:29.823Z,7.10
2023-01-31T09:27:32.354Z,7.20
2023-01-31T09:32:32.049Z,7.20
2023-01-31T09:37:31.202Z,7.10
2023-01-31T09:42:30.847Z,7.20
2023-01-31T09:47:30.219Z,7.10
2023-01-31T09:52:31.149Z,7.10
2023-01-31T09:57:30.742Z,7.10
2023-01-31T10:02:29.787Z,7.20
2023-01-31T10:07:29.514Z,7.30
2023-01-31T10:12:28.380Z,7.30
2023-01-31T10:17:27.370Z,7.40
2023-01-31T10:22:26.213Z,7.50
2023-01-31T10:27:25.222Z,7.70
2023-01-31T10:32:24.314Z,7.60
2023-01-31T10:37:23.984Z,7.50
2023-01-31T10:42:23.166Z,7.30
2023-01-31T10:47:22.127Z,7.20
2023-01-31T10:52:22.745Z,7.30
2023-01-31T10:57:22.220Z,7.40
2023-01-31T11:02:21.279Z,7.60
2023-01-31T11:07:20.225Z,7.90
2023-01-31T11:12:19.480Z,8.10
2023-01-31T11:17:18.276Z,8.30
2023-01-31T11:22:17.408Z,8.30
2023-01-31T11:27:16.177Z,8.40
2023-01-31T11:32:15.247Z,8.20
2023-01-31T11:37:14.251Z,8.00
2023-01-31T11:42:13.292Z,8.00
2023-01-31T11:47:12.281Z,7.90
2023-01-31T11:52:11.476Z,7.80
2023-01-31T11:57:10.186Z,7.90
2023-01-31T12:02:09.294Z,7.90
2023-01-31T12:07:08.205Z,7.90
2023-01-31T12:12:07.955Z,7.90
2023-01-31T12:17:07.245Z,7.90
2023-01-31T12:22:06.165Z,7.80
2023-01-31T12:27:05.370Z,7.80
2023-01-31T12:32:04.382Z,7.80
2023-01-31T12:37:03.392Z,7.90
2023-01-31T12:42:02.414Z,7.80
2023-01-31T12:47:10.402Z,7.80
2023-01-31T12:52:02.507Z,7.80
2023-01-31T12:57:01.511Z,7.90
2023-01-31T13:02:00.294Z,7.90
2023-01-31T13:06:59.293Z,7.80
2023-01-31T13:12:00.292Z,7.90
2023-01-31T13:16:59.733Z,7.80
2023-01-31T13:21:58.408Z,7.90
2023-01-31T13:26:57.497Z,7.90
2023-01-31T13:31:58.793Z,8.00
2023-01-31T13:36:57.269Z,8.00
2023-01-31T13:41:56.482Z,8.10
2023-01-31T13:46:55.657Z,8.00
2023-01-31T13:51:54.628Z,7.90
2023-01-31T13:56:53.469Z,7.80
2023-01-31T14:01:52.743Z,7.70
2023-01-31T14:06:51.243Z,7.60
2023-01-31T14:11:50.282Z,7.60
2023-01-31T14:16:52.665Z,7.50
2023-01-31T14:21:51.384Z,7.50
2023-01-31T14:26:50.531Z,7.50
2023-01-31T14:31:49.529Z,7.40
2023-01-31T14:36:48.499Z,7.40
2023-01-31T14:41:47.364Z,7.40
2023-01-31T14:46:46.238Z,7.50
2023-01-31T14:51:45.351Z,7.50
2023-01-31T14:56:44.518Z,7.50
2023-01-31T15:01:43.308Z,7.50
2023-01-31T15:06:43.771Z,7.50
2023-01-31T15:11:43.286Z,7.50
2023-01-31T15:16:42.425Z,7.40
2023-01-31T15:21:41.444Z,7.40
2023-01-31T15:26:40.757Z,7.40
2023-01-31T15:31:40.958Z,7.50
2023-01-31T15:36:40.386Z,7.50
2023-01-31T15:41:39.711Z,7.50
2023-01-31T15:46:38.486Z,7.60
2023-01-31T15:51:37.535Z,7.60
2023-01-31T15:56:36.686Z,7.70
2023-01-31T16:01:35.620Z,7.70
2023-01-31T16:06:34.601Z,7.70
2023-01-31T16:11:34.137Z,7.70
2023-01-31T16:16:33.450Z,7.70
2023-01-31T16:21:32.335Z,7.80
2023-01-31T16:26:31.456Z,7.80
2023-01-31T16:31:30.488Z,7.90
2023-01-31T16:36:29.347Z,7.90
2023-01-31T16:41:28.367Z,7.90
2023-01-31T16:46:27.567Z,7.90
2023-01-31T16:51:27.945Z,7.90
2023-01-31T16:56:27.534Z,7.90
2023-01-31T17:01:26.598Z,7.90
2023-01-31T17:06:25.556Z,8.00
2023-01-31T17:11:41.629Z,8.00
2023-01-31T17:16:26.733Z,8.00
2023-01-31T17:21:26.368Z,8.00
2023-01-31T17:26:25.410Z,8.10
2023-01-31T17:31:24.424Z,8.10
2023-01-31T17:36:23.439Z,8.10
2023-01-31T17:41:24.298Z,8.20
2023-01-31T17:46:23.681Z,8.20
2023-01-31T17:51:22.624Z,8.30
2023-01-31T17:56:21.596Z,8.40
2023-01-31T18:01:20.903Z,8.40
2023-01-31T18:06:19.528Z,8.40
2023-01-31T18:11:18.648Z,8.30
2023-01-31T18:16:17.775Z,8.30
2023-01-31T18:21:16.346Z,8.20
2023-01-31T18:26:17.291Z,8.10
2023-01-31T18:31:16.540Z,8.10
2023-01-31T18:36:15.543Z,8.00
2023-01-31T18:41:14.701Z,8.00
2023-01-31T18:46:13.571Z,7.90
2023-01-31T18:51:12.687Z,7.90
2023-01-31T18:56:12.366Z,7.90
2023-01-31T19:01:11.696Z,7.90
2023-01-31T19:06:10.461Z,7.90
2023-01-31T19:11:09.640Z,7.90
2023-01-31T19:16:08.531Z,8.00
2023-01-31T19:21:07.465Z,8.00
2023-01-31T19:26:06.674Z,8.10
2023-01-31T19:31:05.639Z,8.10
2023-01-31T19:36:04.505Z,8.10
2023-01-31T19:41:03.516Z,8.10
2023-01-31T19:46:02.554Z,8.10
2023-01-31T19:51:01.503Z,8.20
2023-01-31T19:56:00.525Z,8.10
2023-01-31T20:00:59.813Z,8.00
2023-01-31T20:05:58.562Z,7.90
2023-01-31T20:10:57.494Z,7.80
2023-01-31T20:15:56.697Z,7.70
2023-01-31T20:20:55.599Z,7.60
2023-01-31T20:25:54.606Z,7.70
2023-01-31T20:30:53.562Z,7.70
2023-01-31T20:35:52.608Z,7.70
2023-01-31T20:40:51.536Z,7.70
2023-01-31T20:45:50.711Z,7.70
2023-01-31T20:50:49.574Z,7.60
2023-01-31T20:55:48.777Z,7.60
2023-01-31T21:00:47.700Z,7.50
2023-01-31T21:05:46.719Z,7.40
2023-01-31T21:10:45.740Z,7.30
2023-01-31T21:15:44.757Z,7.20
2023-01-31T21:20:43.744Z,7.10
2023-01-31T21:25:42.576Z,7.10
2023-01-31T21:30:41.677Z,7.00
2023-01-31T21:35:40.482Z,6.90
2023-01-31T21:40:40.270Z,6.90
2023-01-31T21:45:39.964Z,6.90
2023-01-31T21:50:39.627Z,7.00
2023-01-31T21:55:38.656Z,7.10
2023-01-31T22:00:37.895Z,7.20
2023-01-31T22:05:36.675Z,7.30
2023-01-31T22:10:35.704Z,7.30
2023-01-31T22:15:35.141Z,7.40
2023-01-31T22:20:34.747Z,7.60
2023-01-31T22:25:33.553Z,7.60
2023-01-31T22:30:33.261Z,7.60
2023-01-31T22:35:32.600Z,7.60
2023-01-31T22:40:31.601Z,7.70
2023-01-31T22:45:30.529Z,7.70
2023-01-31T22:50:29.636Z,7.70
2023-01-31T22:55:28.630Z,7.70
2023-01-31T23:00:27.661Z,7.80
2023-01-31T23:05:26.669Z,7.80
2023-01-31T23:10:25.581Z,7.80
2023-01-31T23:15:24.683Z,7.80
2023-01-31T23:20:23.839Z,7.70
2023-01-31T23:25:22.714Z,7.70
2023-01-31T23:30:22.003Z,7.60
2023-01-31T23:35:21.770Z,7.60
2023-01-31T23:40:21.297Z,7.60
2023-01-31T23:45:20.873Z,7.50
2023-01-31T23:50:19.730Z,7.60
2023-01-31T23:55:18.529Z,7.50
